sensor_id;sensor_type;location;lat;lon;timestamp;P1;durP1;ratioP1;P2;durP2;ratioP2
25327;SDS011;13279;51.300;12.394;2023-10-13T00:00:26;15.70;;;10.20;;
25327;SDS011;13279;51.300;12.394;2023-10-13T00:02:56;15.10;;;9.63;;
25327;SDS011;13279;51.300;12.394;2023-10-13T00:05:27;20.77;;;10.53;;
25327;SDS011;13279;51.300;12.394;2023-10-13T00:07:56;16.23;;;9.73;;
25327;SDS011;13279;51.300;12.394;2023-10-13T00:10:26;11.83;;;9.13;;
25327;SDS011;13279;51.300;12.394;2023-10-13T00:12:54;18.70;;;9.90;;
25327;SDS011;13279;51.300;12.394;2023-10-13T00:15:32;14.80;;;9.67;;
25327;SDS011;13279;51.300;12.394;2023-10-13T00:18:04;16.47;;;9.87;;
25327;SDS011;13279;51.300;12.394;2023-10-13T00:20:38;16.07;;;10.23;;
25327;SDS011;13279;51.300;12.394;2023-10-13T00:23:13;12.83;;;9.30;;
25327;SDS011;13279;51.300;12.394;2023-10-13T00:25:47;13.40;;;9.27;;
25327;SDS011;13279;51.300;12.394;2023-10-13T00:28:23;14.20;;;9.40;;
25327;SDS011;13279;51.300;12.394;2023-10-13T00:30:54;12.87;;;8.80;;
25327;SDS011;13279;51.300;12.394;2023-10-13T00:33:27;16.53;;;8.73;;
25327;SDS011;13279;51.300;12.394;2023-10-13T00:35:57;16.57;;;8.57;;
25327;SDS011;13279;51.300;12.394;2023-10-13T00:38:29;12.87;;;8.77;;
25327;SDS011;13279;51.300;12.394;2023-10-13T00:40:56;14.07;;;8.90;;
25327;SDS011;13279;51.300;12.394;2023-10-13T00:43:29;17.53;;;9.63;;
25327;SDS011;13279;51.300;12.394;2023-10-13T00:46:01;17.00;;;8.97;;
25327;SDS011;13279;51.300;12.394;2023-10-13T00:48:40;17.20;;;8.73;;
25327;SDS011;13279;51.300;12.394;2023-10-13T00:51:09;12.40;;;8.30;;
25327;SDS011;13279;51.300;12.394;2023-10-13T00:53:57;14.70;;;8.87;;
25327;SDS011;13279;51.300;12.394;2023-10-13T00:56:25;18.53;;;9.07;;
25327;SDS011;13279;51.300;12.394;2023-10-13T00:58:56;11.40;;;8.23;;
25327;SDS011;13279;51.300;12.394;2023-10-13T01:01:29;16.17;;;7.57;;
25327;SDS011;13279;51.300;12.394;2023-10-13T01:03:58;15.10;;;8.77;;
25327;SDS011;13279;51.300;12.394;2023-10-13T01:06:25;12.50;;;7.80;;
25327;SDS011;13279;51.300;12.394;2023-10-13T01:08:58;14.40;;;8.27;;
25327;SDS011;13279;51.300;12.394;2023-10-13T01:11:37;16.97;;;8.10;;
25327;SDS011;13279;51.300;12.394;2023-10-13T01:14:05;10.40;;;7.93;;
25327;SDS011;13279;51.300;12.394;2023-10-13T01:16:33;13.07;;;9.07;;
25327;SDS011;13279;51.300;12.394;2023-10-13T01:19:01;14.07;;;8.67;;
25327;SDS011;13279;51.300;12.394;2023-10-13T01:21:30;15.13;;;8.30;;
25327;SDS011;13279;51.300;12.394;2023-10-13T01:24:01;11.27;;;7.60;;
25327;SDS011;13279;51.300;12.394;2023-10-13T01:26:34;16.20;;;7.73;;
25327;SDS011;13279;51.300;12.394;2023-10-13T01:29:04;15.03;;;8.17;;
25327;SDS011;13279;51.300;12.394;2023-10-13T01:31:40;11.20;;;7.50;;
25327;SDS011;13279;51.300;12.394;2023-10-13T01:34:12;10.17;;;7.17;;
25327;SDS011;13279;51.300;12.394;2023-10-13T01:36:45;11.87;;;7.30;;
25327;SDS011;13279;51.300;12.394;2023-10-13T01:39:18;10.03;;;7.30;;
25327;SDS011;13279;51.300;12.394;2023-10-13T01:41:45;12.03;;;7.63;;
25327;SDS011;13279;51.300;12.394;2023-10-13T01:44:19;10.63;;;6.93;;
25327;SDS011;13279;51.300;12.394;2023-10-13T01:46:45;15.90;;;7.70;;
25327;SDS011;13279;51.300;12.394;2023-10-13T01:49:13;10.40;;;7.00;;
25327;SDS011;13279;51.300;12.394;2023-10-13T01:51:41;12.33;;;7.67;;
25327;SDS011;13279;51.300;12.394;2023-10-13T01:54:13;14.67;;;7.57;;
25327;SDS011;13279;51.300;12.394;2023-10-13T01:56:42;12.33;;;7.27;;
25327;SDS011;13279;51.300;12.394;2023-10-13T01:59:10;11.77;;;6.77;;
25327;SDS011;13279;51.300;12.394;2023-10-13T02:01:37;10.93;;;7.03;;
25327;SDS011;13279;51.300;12.394;2023-10-13T02:04:05;10.53;;;6.53;;
25327;SDS011;13279;51.300;12.394;2023-10-13T02:06:33;9.83;;;6.23;;
25327;SDS011;13279;51.300;12.394;2023-10-13T02:09:02;10.90;;;6.03;;
25327;SDS011;13279;51.300;12.394;2023-10-13T02:11:37;11.20;;;7.00;;
25327;SDS011;13279;51.300;12.394;2023-10-13T02:14:07;11.67;;;6.37;;
25327;SDS011;13279;51.300;12.394;2023-10-13T02:16:38;7.97;;;6.03;;
25327;SDS011;13279;51.300;12.394;2023-10-13T02:19:05;12.63;;;6.47;;
25327;SDS011;13279;51.300;12.394;2023-10-13T02:21:34;11.13;;;6.70;;
25327;SDS011;13279;51.300;12.394;2023-10-13T02:24:07;10.23;;;6.27;;
25327;SDS011;13279;51.300;12.394;2023-10-13T02:26:40;7.47;;;5.53;;
25327;SDS011;13279;51.300;12.394;2023-10-13T02:29:09;8.90;;;5.93;;
25327;SDS011;13279;51.300;12.394;2023-10-13T02:31:39;9.40;;;5.57;;
25327;SDS011;13279;51.300;12.394;2023-10-13T02:34:08;12.70;;;6.77;;
25327;SDS011;13279;51.300;12.394;2023-10-13T02:36:35;9.53;;;6.70;;
25327;SDS011;13279;51.300;12.394;2023-10-13T02:39:09;10.40;;;6.40;;
25327;SDS011;13279;51.300;12.394;2023-10-13T02:41:39;10.13;;;5.37;;
25327;SDS011;13279;51.300;12.394;2023-10-13T02:44:07;9.80;;;6.50;;
25327;SDS011;13279;51.300;12.394;2023-10-13T02:46:42;8.70;;;6.17;;
25327;SDS011;13279;51.300;12.394;2023-10-13T02:49:08;10.20;;;6.17;;
25327;SDS011;13279;51.300;12.394;2023-10-13T02:51:36;12.40;;;6.57;;
25327;SDS011;13279;51.300;12.394;2023-10-13T02:54:03;12.67;;;6.97;;
25327;SDS011;13279;51.300;12.394;2023-10-13T02:56:36;10.70;;;7.03;;
25327;SDS011;13279;51.300;12.394;2023-10-13T02:59:03;8.90;;;6.50;;
25327;SDS011;13279;51.300;12.394;2023-10-13T03:01:33;13.17;;;7.37;;
25327;SDS011;13279;51.300;12.394;2023-10-13T03:04:00;8.90;;;6.73;;
25327;SDS011;13279;51.300;12.394;2023-10-13T03:06:29;11.03;;;7.40;;
25327;SDS011;13279;51.300;12.394;2023-10-13T03:08:59;12.87;;;8.23;;
25327;SDS011;13279;51.300;12.394;2023-10-13T03:11:40;14.10;;;8.17;;
25327;SDS011;13279;51.300;12.394;2023-10-13T03:14:15;20.33;;;8.87;;
25327;SDS011;13279;51.300;12.394;2023-10-13T03:16:53;18.00;;;9.73;;
25327;SDS011;13279;51.300;12.394;2023-10-13T03:19:20;23.27;;;10.33;;
25327;SDS011;13279;51.300;12.394;2023-10-13T03:21:48;18.60;;;9.90;;
25327;SDS011;13279;51.300;12.394;2023-10-13T03:24:20;22.80;;;10.60;;
25327;SDS011;13279;51.300;12.394;2023-10-13T03:26:59;17.70;;;9.73;;
25327;SDS011;13279;51.300;12.394;2023-10-13T03:29:34;17.30;;;9.63;;
25327;SDS011;13279;51.300;12.394;2023-10-13T03:32:04;18.27;;;9.83;;
25327;SDS011;13279;51.300;12.394;2023-10-13T03:34:37;26.20;;;9.47;;
25327;SDS011;13279;51.300;12.394;2023-10-13T03:37:15;12.47;;;8.70;;
25327;SDS011;13279;51.300;12.394;2023-10-13T03:39:45;15.70;;;9.70;;
25327;SDS011;13279;51.300;12.394;2023-10-13T03:42:13;13.07;;;8.60;;
25327;SDS011;13279;51.300;12.394;2023-10-13T03:44:45;16.00;;;8.90;;
25327;SDS011;13279;51.300;12.394;2023-10-13T03:47:14;13.07;;;8.90;;
25327;SDS011;13279;51.300;12.394;2023-10-13T03:49:58;14.63;;;9.10;;
25327;SDS011;13279;51.300;12.394;2023-10-13T03:52:39;20.80;;;9.40;;
25327;SDS011;13279;51.300;12.394;2023-10-13T03:55:07;21.10;;;9.53;;
25327;SDS011;13279;51.300;12.394;2023-10-13T03:57:42;15.27;;;7.50;;
25327;SDS011;13279;51.300;12.394;2023-10-13T04:00:12;13.37;;;7.30;;
25327;SDS011;13279;51.300;12.394;2023-10-13T04:02:53;8.77;;;7.00;;
25327;SDS011;13279;51.300;12.394;2023-10-13T04:05:34;10.13;;;7.00;;
25327;SDS011;13279;51.300;12.394;2023-10-13T04:08:07;12.20;;;7.10;;
25327;SDS011;13279;51.300;12.394;2023-10-13T04:10:53;10.00;;;6.47;;
25327;SDS011;13279;51.300;12.394;2023-10-13T04:13:39;15.77;;;6.47;;
25327;SDS011;13279;51.300;12.394;2023-10-13T04:16:23;13.33;;;6.50;;
25327;SDS011;13279;51.300;12.394;2023-10-13T04:19:05;10.50;;;6.57;;
25327;SDS011;13279;51.300;12.394;2023-10-13T04:21:46;10.43;;;6.30;;
25327;SDS011;13279;51.300;12.394;2023-10-13T04:24:23;12.07;;;5.77;;
25327;SDS011;13279;51.300;12.394;2023-10-13T04:27:25;10.67;;;6.47;;
25327;SDS011;13279;51.300;12.394;2023-10-13T04:30:20;8.83;;;5.40;;
25327;SDS011;13279;51.300;12.394;2023-10-13T04:32:53;10.23;;;5.60;;
25327;SDS011;13279;51.300;12.394;2023-10-13T04:35:44;12.27;;;6.30;;
25327;SDS011;13279;51.300;12.394;2023-10-13T04:38:23;7.17;;;5.97;;
25327;SDS011;13279;51.300;12.394;2023-10-13T04:40:59;9.93;;;6.30;;
25327;SDS011;13279;51.300;12.394;2023-10-13T04:43:26;11.60;;;6.63;;
25327;SDS011;13279;51.300;12.394;2023-10-13T04:46:20;11.90;;;6.80;;
25327;SDS011;13279;51.300;12.394;2023-10-13T04:49:01;9.23;;;6.53;;
25327;SDS011;13279;51.300;12.394;2023-10-13T04:51:37;11.70;;;7.03;;
25327;SDS011;13279;51.300;12.394;2023-10-13T04:54:24;17.43;;;7.17;;
25327;SDS011;13279;51.300;12.394;2023-10-13T04:57:11;13.63;;;7.00;;
25327;SDS011;13279;51.300;12.394;2023-10-13T04:59:55;13.03;;;7.10;;
25327;SDS011;13279;51.300;12.394;2023-10-13T05:02:41;13.43;;;7.87;;
25327;SDS011;13279;51.300;12.394;2023-10-13T05:05:42;18.30;;;8.20;;
25327;SDS011;13279;51.300;12.394;2023-10-13T05:08:26;16.87;;;8.17;;
25327;SDS011;13279;51.300;12.394;2023-10-13T05:11:12;11.47;;;7.87;;
25327;SDS011;13279;51.300;12.394;2023-10-13T05:13:57;12.67;;;8.37;;
25327;SDS011;13279;51.300;12.394;2023-10-13T05:16:42;13.70;;;7.90;;
25327;SDS011;13279;51.300;12.394;2023-10-13T05:19:28;12.57;;;8.27;;
25327;SDS011;13279;51.300;12.394;2023-10-13T05:22:13;12.90;;;8.33;;
25327;SDS011;13279;51.300;12.394;2023-10-13T05:25:00;12.07;;;8.80;;
25327;SDS011;13279;51.300;12.394;2023-10-13T05:27:44;14.70;;;8.57;;
25327;SDS011;13279;51.300;12.394;2023-10-13T05:30:29;11.30;;;7.97;;
25327;SDS011;13279;51.300;12.394;2023-10-13T05:33:14;15.77;;;8.80;;
25327;SDS011;13279;51.300;12.394;2023-10-13T05:35:59;13.37;;;9.03;;
25327;SDS011;13279;51.300;12.394;2023-10-13T05:38:45;18.27;;;8.73;;
25327;SDS011;13279;51.300;12.394;2023-10-13T05:41:31;18.50;;;9.63;;
25327;SDS011;13279;51.300;12.394;2023-10-13T05:44:16;15.27;;;8.80;;
25327;SDS011;13279;51.300;12.394;2023-10-13T05:47:18;14.87;;;8.53;;
25327;SDS011;13279;51.300;12.394;2023-10-13T05:50:11;12.67;;;8.37;;
25327;SDS011;13279;51.300;12.394;2023-10-13T05:52:55;12.40;;;9.10;;
25327;SDS011;13279;51.300;12.394;2023-10-13T05:55:40;13.97;;;8.47;;
25327;SDS011;13279;51.300;12.394;2023-10-13T05:58:26;15.43;;;8.07;;
25327;SDS011;13279;51.300;12.394;2023-10-13T06:01:12;14.97;;;9.07;;
25327;SDS011;13279;51.300;12.394;2023-10-13T06:03:57;13.23;;;8.87;;
25327;SDS011;13279;51.300;12.394;2023-10-13T06:06:42;17.73;;;8.83;;
25327;SDS011;13279;51.300;12.394;2023-10-13T06:09:27;13.07;;;8.70;;
25327;SDS011;13279;51.300;12.394;2023-10-13T06:12:12;15.43;;;8.13;;
25327;SDS011;13279;51.300;12.394;2023-10-13T06:14:58;11.70;;;7.90;;
25327;SDS011;13279;51.300;12.394;2023-10-13T06:17:43;9.93;;;8.07;;
25327;SDS011;13279;51.300;12.394;2023-10-13T06:20:29;13.87;;;8.50;;
25327;SDS011;13279;51.300;12.394;2023-10-13T06:23:13;14.03;;;9.13;;
25327;SDS011;13279;51.300;12.394;2023-10-13T06:25:59;16.10;;;8.83;;
25327;SDS011;13279;51.300;12.394;2023-10-13T06:28:44;14.97;;;8.83;;
25327;SDS011;13279;51.300;12.394;2023-10-13T06:31:13;13.47;;;8.80;;
25327;SDS011;13279;51.300;12.394;2023-10-13T06:33:48;14.83;;;8.50;;
25327;SDS011;13279;51.300;12.394;2023-10-13T06:36:15;15.77;;;7.73;;
25327;SDS011;13279;51.300;12.394;2023-10-13T06:38:43;18.07;;;8.30;;
25327;SDS011;13279;51.300;12.394;2023-10-13T06:41:10;14.37;;;8.30;;
25327;SDS011;13279;51.300;12.394;2023-10-13T06:43:45;15.67;;;7.77;;
25327;SDS011;13279;51.300;12.394;2023-10-13T06:46:27;12.70;;;7.70;;
25327;SDS011;13279;51.300;12.394;2023-10-13T06:48:59;12.50;;;7.20;;
25327;SDS011;13279;51.300;12.394;2023-10-13T06:51:28;12.20;;;7.37;;
25327;SDS011;13279;51.300;12.394;2023-10-13T06:54:05;15.40;;;7.30;;
25327;SDS011;13279;51.300;12.394;2023-10-13T06:56:37;12.90;;;6.80;;
25327;SDS011;13279;51.300;12.394;2023-10-13T06:59:06;13.10;;;7.07;;
25327;SDS011;13279;51.300;12.394;2023-10-13T07:01:35;8.60;;;6.20;;
25327;SDS011;13279;51.300;12.394;2023-10-13T07:04:06;10.70;;;6.23;;
25327;SDS011;13279;51.300;12.394;2023-10-13T07:06:39;11.00;;;6.80;;
25327;SDS011;13279;51.300;12.394;2023-10-13T07:09:10;10.17;;;6.07;;
25327;SDS011;13279;51.300;12.394;2023-10-13T07:11:58;7.60;;;5.63;;
25327;SDS011;13279;51.300;12.394;2023-10-13T07:14:27;11.93;;;5.93;;
25327;SDS011;13279;51.300;12.394;2023-10-13T07:17:00;15.33;;;6.47;;
25327;SDS011;13279;51.300;12.394;2023-10-13T07:19:30;10.43;;;5.53;;
25327;SDS011;13279;51.300;12.394;2023-10-13T07:21:59;8.80;;;5.43;;
25327;SDS011;13279;51.300;12.394;2023-10-13T07:24:44;8.43;;;5.90;;
25327;SDS011;13279;51.300;12.394;2023-10-13T07:27:14;5.03;;;4.43;;
25327;SDS011;13279;51.300;12.394;2023-10-13T07:29:48;12.40;;;5.73;;
25327;SDS011;13279;51.300;12.394;2023-10-13T07:32:23;8.93;;;5.37;;
25327;SDS011;13279;51.300;12.394;2023-10-13T07:34:54;9.80;;;5.23;;
25327;SDS011;13279;51.300;12.394;2023-10-13T07:37:23;11.13;;;5.50;;
25327;SDS011;13279;51.300;12.394;2023-10-13T07:39:54;8.43;;;5.87;;
25327;SDS011;13279;51.300;12.394;2023-10-13T07:42:24;13.53;;;5.97;;
25327;SDS011;13279;51.300;12.394;2023-10-13T07:44:57;7.40;;;4.97;;
25327;SDS011;13279;51.300;12.394;2023-10-13T07:47:26;11.97;;;4.87;;
25327;SDS011;13279;51.300;12.394;2023-10-13T07:49:58;10.57;;;5.40;;
25327;SDS011;13279;51.300;12.394;2023-10-13T07:52:26;9.20;;;5.17;;
25327;SDS011;13279;51.300;12.394;2023-10-13T07:55:03;12.57;;;5.50;;
25327;SDS011;13279;51.300;12.394;2023-10-13T07:57:45;8.03;;;5.17;;
25327;SDS011;13279;51.300;12.394;2023-10-13T08:00:25;9.53;;;5.17;;
25327;SDS011;13279;51.300;12.394;2023-10-13T08:02:59;8.37;;;5.23;;
25327;SDS011;13279;51.300;12.394;2023-10-13T08:05:45;12.60;;;5.27;;
25327;SDS011;13279;51.300;12.394;2023-10-13T08:08:23;10.33;;;5.90;;
25327;SDS011;13279;51.300;12.394;2023-10-13T08:11:01;8.70;;;5.33;;
25327;SDS011;13279;51.300;12.394;2023-10-13T08:13:35;11.37;;;5.10;;
25327;SDS011;13279;51.300;12.394;2023-10-13T08:16:02;14.97;;;5.60;;
25327;SDS011;13279;51.300;12.394;2023-10-13T08:18:35;12.57;;;5.23;;
25327;SDS011;13279;51.300;12.394;2023-10-13T08:21:07;8.13;;;5.23;;
25327;SDS011;13279;51.300;12.394;2023-10-13T08:23:41;13.87;;;5.37;;
25327;SDS011;13279;51.300;12.394;2023-10-13T08:26:28;10.87;;;6.17;;
25327;SDS011;13279;51.300;12.394;2023-10-13T08:29:09;10.40;;;5.47;;
25327;SDS011;13279;51.300;12.394;2023-10-13T08:31:54;9.70;;;4.80;;
25327;SDS011;13279;51.300;12.394;2023-10-13T08:34:40;9.30;;;5.33;;
25327;SDS011;13279;51.300;12.394;2023-10-13T08:37:22;12.83;;;5.03;;
25327;SDS011;13279;51.300;12.394;2023-10-13T08:39:55;11.73;;;5.20;;
25327;SDS011;13279;51.300;12.394;2023-10-13T08:42:40;13.30;;;5.90;;
25327;SDS011;13279;51.300;12.394;2023-10-13T08:45:21;8.43;;;4.93;;
25327;SDS011;13279;51.300;12.394;2023-10-13T08:48:10;16.50;;;5.70;;
25327;SDS011;13279;51.300;12.394;2023-10-13T08:50:44;10.07;;;5.37;;
25327;SDS011;13279;51.300;12.394;2023-10-13T08:53:18;10.73;;;5.67;;
25327;SDS011;13279;51.300;12.394;2023-10-13T08:55:57;10.43;;;5.67;;
25327;SDS011;13279;51.300;12.394;2023-10-13T08:58:35;18.83;;;5.90;;
25327;SDS011;13279;51.300;12.394;2023-10-13T09:01:22;9.60;;;5.30;;
25327;SDS011;13279;51.300;12.394;2023-10-13T09:04:10;7.40;;;5.10;;
25327;SDS011;13279;51.300;12.394;2023-10-13T09:06:49;12.77;;;5.33;;
25327;SDS011;13279;51.300;12.394;2023-10-13T09:09:44;8.00;;;5.03;;
25327;SDS011;13279;51.300;12.394;2023-10-13T09:12:37;13.77;;;5.43;;
25327;SDS011;13279;51.300;12.394;2023-10-13T09:15:29;8.93;;;5.30;;
25327;SDS011;13279;51.300;12.394;2023-10-13T09:18:24;10.07;;;5.60;;
25327;SDS011;13279;51.300;12.394;2023-10-13T09:21:08;13.20;;;5.17;;
25327;SDS011;13279;51.300;12.394;2023-10-13T09:23:55;15.20;;;5.77;;
25327;SDS011;13279;51.300;12.394;2023-10-13T09:26:50;11.27;;;5.57;;
25327;SDS011;13279;51.300;12.394;2023-10-13T09:29:21;9.97;;;5.17;;
25327;SDS011;13279;51.300;12.394;2023-10-13T09:31:59;11.60;;;5.93;;
25327;SDS011;13279;51.300;12.394;2023-10-13T09:34:29;15.57;;;5.90;;
25327;SDS011;13279;51.300;12.394;2023-10-13T09:36:57;12.57;;;5.17;;
25327;SDS011;13279;51.300;12.394;2023-10-13T09:39:28;10.60;;;5.07;;
25327;SDS011;13279;51.300;12.394;2023-10-13T09:41:57;11.83;;;5.70;;
25327;SDS011;13279;51.300;12.394;2023-10-13T09:44:25;10.13;;;5.83;;
25327;SDS011;13279;51.300;12.394;2023-10-13T09:46:57;20.50;;;6.27;;
25327;SDS011;13279;51.300;12.394;2023-10-13T09:49:34;20.97;;;6.20;;
25327;SDS011;13279;51.300;12.394;2023-10-13T09:52:13;17.87;;;5.73;;
25327;SDS011;13279;51.300;12.394;2023-10-13T09:57:38;12.50;;;6.43;;
25327;SDS011;13279;51.300;12.394;2023-10-13T10:00:15;20.90;;;5.87;;
25327;SDS011;13279;51.300;12.394;2023-10-13T10:03:08;16.10;;;5.53;;
25327;SDS011;13279;51.300;12.394;2023-10-13T10:05:55;9.57;;;5.20;;
25327;SDS011;13279;51.300;12.394;2023-10-13T10:08:29;12.10;;;5.70;;
25327;SDS011;13279;51.300;12.394;2023-10-13T10:11:03;11.93;;;5.53;;
25327;SDS011;13279;51.300;12.394;2023-10-13T10:13:51;12.33;;;5.00;;
25327;SDS011;13279;51.300;12.394;2023-10-13T10:16:27;13.27;;;4.90;;
25327;SDS011;13279;51.300;12.394;2023-10-13T10:19:03;7.37;;;5.23;;
25327;SDS011;13279;51.300;12.394;2023-10-13T10:21:33;18.13;;;5.90;;
25327;SDS011;13279;51.300;12.394;2023-10-13T10:24:01;16.20;;;4.97;;
25327;SDS011;13279;51.300;12.394;2023-10-13T10:26:34;12.73;;;5.33;;
25327;SDS011;13279;51.300;12.394;2023-10-13T10:29:10;16.00;;;5.50;;
25327;SDS011;13279;51.300;12.394;2023-10-13T10:31:39;8.47;;;4.43;;
25327;SDS011;13279;51.300;12.394;2023-10-13T10:34:12;13.57;;;5.40;;
25327;SDS011;13279;51.300;12.394;2023-10-13T10:36:41;9.10;;;5.30;;
25327;SDS011;13279;51.300;12.394;2023-10-13T10:39:12;9.80;;;5.03;;
25327;SDS011;13279;51.300;12.394;2023-10-13T10:41:40;12.77;;;5.07;;
25327;SDS011;13279;51.300;12.394;2023-10-13T10:44:19;12.40;;;5.00;;
25327;SDS011;13279;51.300;12.394;2023-10-13T10:47:08;10.97;;;5.10;;
25327;SDS011;13279;51.300;12.394;2023-10-13T10:49:37;9.30;;;5.23;;
25327;SDS011;13279;51.300;12.394;2023-10-13T10:52:08;11.20;;;5.10;;
25327;SDS011;13279;51.300;12.394;2023-10-13T10:54:44;12.10;;;5.17;;
25327;SDS011;13279;51.300;12.394;2023-10-13T10:57:17;9.37;;;4.60;;
25327;SDS011;13279;51.300;12.394;2023-10-13T10:59:46;13.50;;;4.83;;
25327;SDS011;13279;51.300;12.394;2023-10-13T11:02:34;11.53;;;5.40;;
25327;SDS011;13279;51.300;12.394;2023-10-13T11:05:01;11.37;;;5.10;;
25327;SDS011;13279;51.300;12.394;2023-10-13T11:07:31;12.63;;;5.30;;
25327;SDS011;13279;51.300;12.394;2023-10-13T11:10:06;13.13;;;4.87;;
25327;SDS011;13279;51.300;12.394;2023-10-13T11:12:38;7.73;;;4.50;;
25327;SDS011;13279;51.300;12.394;2023-10-13T11:15:07;9.53;;;4.60;;
25327;SDS011;13279;51.300;12.394;2023-10-13T11:17:40;9.73;;;4.60;;
25327;SDS011;13279;51.300;12.394;2023-10-13T11:20:17;16.97;;;4.80;;
25327;SDS011;13279;51.300;12.394;2023-10-13T11:22:51;19.10;;;5.17;;
25327;SDS011;13279;51.300;12.394;2023-10-13T11:25:20;11.20;;;4.43;;
25327;SDS011;13279;51.300;12.394;2023-10-13T11:27:55;9.07;;;4.43;;
25327;SDS011;13279;51.300;12.394;2023-10-13T11:30:26;8.97;;;4.50;;
25327;SDS011;13279;51.300;12.394;2023-10-13T11:33:07;12.90;;;5.23;;
25327;SDS011;13279;51.300;12.394;2023-10-13T11:35:35;14.90;;;4.97;;
25327;SDS011;13279;51.300;12.394;2023-10-13T11:38:23;11.17;;;4.63;;
25327;SDS011;13279;51.300;12.394;2023-10-13T11:40:53;9.00;;;4.30;;
25327;SDS011;13279;51.300;12.394;2023-10-13T11:43:38;14.00;;;4.83;;
25327;SDS011;13279;51.300;12.394;2023-10-13T11:46:37;17.03;;;4.60;;
25327;SDS011;13279;51.300;12.394;2023-10-13T11:49:24;10.73;;;4.47;;
25327;SDS011;13279;51.300;12.394;2023-10-13T11:51:59;14.80;;;4.30;;
25327;SDS011;13279;51.300;12.394;2023-10-13T11:54:42;13.07;;;4.50;;
25327;SDS011;13279;51.300;12.394;2023-10-13T11:57:09;13.90;;;4.40;;
25327;SDS011;13279;51.300;12.394;2023-10-13T11:59:37;14.40;;;5.33;;
25327;SDS011;13279;51.300;12.394;2023-10-13T12:02:21;8.47;;;4.27;;
25327;SDS011;13279;51.300;12.394;2023-10-13T12:05:06;10.90;;;5.07;;
25327;SDS011;13279;51.300;12.394;2023-10-13T12:07:42;17.77;;;4.53;;
25327;SDS011;13279;51.300;12.394;2023-10-13T12:10:13;15.57;;;4.33;;
25327;SDS011;13279;51.300;12.394;2023-10-13T12:13:00;13.47;;;3.77;;
25327;SDS011;13279;51.300;12.394;2023-10-13T12:15:36;14.77;;;4.40;;
25327;SDS011;13279;51.300;12.394;2023-10-13T12:18:16;14.37;;;4.77;;
25327;SDS011;13279;51.300;12.394;2023-10-13T12:20:44;16.13;;;4.67;;
25327;SDS011;13279;51.300;12.394;2023-10-13T12:23:12;12.63;;;4.33;;
25327;SDS011;13279;51.300;12.394;2023-10-13T12:25:45;13.50;;;5.20;;
25327;SDS011;13279;51.300;12.394;2023-10-13T12:28:26;13.13;;;4.30;;
25327;SDS011;13279;51.300;12.394;2023-10-13T12:30:54;18.70;;;4.70;;
25327;SDS011;13279;51.300;12.394;2023-10-13T12:33:26;18.97;;;4.93;;
25327;SDS011;13279;51.300;12.394;2023-10-13T12:36:02;7.77;;;4.57;;
25327;SDS011;13279;51.300;12.394;2023-10-13T12:38:35;10.03;;;4.53;;
25327;SDS011;13279;51.300;12.394;2023-10-13T12:41:48;10.80;;;4.73;;
25327;SDS011;13279;51.300;12.394;2023-10-13T12:44:32;15.10;;;4.70;;
25327;SDS011;13279;51.300;12.394;2023-10-13T12:47:17;13.57;;;4.33;;
25327;SDS011;13279;51.300;12.394;2023-10-13T12:50:04;8.60;;;4.23;;
25327;SDS011;13279;51.300;12.394;2023-10-13T12:52:42;15.13;;;4.03;;
25327;SDS011;13279;51.300;12.394;2023-10-13T12:55:11;15.57;;;4.80;;
25327;SDS011;13279;51.300;12.394;2023-10-13T12:57:40;9.27;;;4.23;;
25327;SDS011;13279;51.300;12.394;2023-10-13T13:00:11;13.97;;;5.67;;
25327;SDS011;13279;51.300;12.394;2023-10-13T13:02:49;12.93;;;4.50;;
25327;SDS011;13279;51.300;12.394;2023-10-13T13:05:22;12.40;;;4.30;;
25327;SDS011;13279;51.300;12.394;2023-10-13T13:07:54;16.80;;;5.23;;
25327;SDS011;13279;51.300;12.394;2023-10-13T13:10:22;13.73;;;4.23;;
25327;SDS011;13279;51.300;12.394;2023-10-13T13:13:05;9.70;;;4.40;;
25327;SDS011;13279;51.300;12.394;2023-10-13T13:15:32;13.07;;;3.90;;
25327;SDS011;13279;51.300;12.394;2023-10-13T13:18:00;13.47;;;4.87;;
25327;SDS011;13279;51.300;12.394;2023-10-13T13:20:38;14.57;;;4.87;;
25327;SDS011;13279;51.300;12.394;2023-10-13T13:23:18;9.23;;;4.43;;
25327;SDS011;13279;51.300;12.394;2023-10-13T13:25:46;10.87;;;4.23;;
25327;SDS011;13279;51.300;12.394;2023-10-13T13:28:14;14.80;;;5.07;;
25327;SDS011;13279;51.300;12.394;2023-10-13T13:30:41;13.93;;;5.07;;
25327;SDS011;13279;51.300;12.394;2023-10-13T13:33:09;7.23;;;3.70;;
25327;SDS011;13279;51.300;12.394;2023-10-13T13:35:38;14.60;;;5.10;;
25327;SDS011;13279;51.300;12.394;2023-10-13T13:38:09;17.27;;;4.80;;
25327;SDS011;13279;51.300;12.394;2023-10-13T13:40:42;11.93;;;5.10;;
25327;SDS011;13279;51.300;12.394;2023-10-13T13:43:14;10.60;;;4.00;;
25327;SDS011;13279;51.300;12.394;2023-10-13T13:45:57;10.70;;;4.67;;
25327;SDS011;13279;51.300;12.394;2023-10-13T13:48:30;14.00;;;4.43;;
25327;SDS011;13279;51.300;12.394;2023-10-13T13:51:04;17.57;;;4.80;;
25327;SDS011;13279;51.300;12.394;2023-10-13T13:53:40;14.83;;;4.73;;
25327;SDS011;13279;51.300;12.394;2023-10-13T13:56:11;12.30;;;4.17;;
25327;SDS011;13279;51.300;12.394;2023-10-13T13:58:42;12.63;;;3.97;;
25327;SDS011;13279;51.300;12.394;2023-10-13T14:01:11;10.00;;;4.60;;
25327;SDS011;13279;51.300;12.394;2023-10-13T14:03:40;14.27;;;4.30;;
25327;SDS011;13279;51.300;12.394;2023-10-13T14:06:13;17.20;;;5.00;;
25327;SDS011;13279;51.300;12.394;2023-10-13T14:08:44;10.73;;;4.40;;
25327;SDS011;13279;51.300;12.394;2023-10-13T14:11:14;17.03;;;4.13;;
25327;SDS011;13279;51.300;12.394;2023-10-13T14:14:05;9.70;;;3.90;;
25327;SDS011;13279;51.300;12.394;2023-10-13T14:16:38;11.90;;;4.33;;
25327;SDS011;13279;51.300;12.394;2023-10-13T14:19:10;14.93;;;3.97;;
25327;SDS011;13279;51.300;12.394;2023-10-13T14:21:39;10.20;;;3.90;;
25327;SDS011;13279;51.300;12.394;2023-10-13T14:24:08;9.73;;;3.90;;
25327;SDS011;13279;51.300;12.394;2023-10-13T14:26:40;10.37;;;3.97;;
25327;SDS011;13279;51.300;12.394;2023-10-13T14:29:11;19.23;;;4.63;;
25327;SDS011;13279;51.300;12.394;2023-10-13T14:31:41;15.20;;;4.73;;
25327;SDS011;13279;51.300;12.394;2023-10-13T14:34:09;11.20;;;4.30;;
25327;SDS011;13279;51.300;12.394;2023-10-13T14:36:38;9.73;;;4.60;;
25327;SDS011;13279;51.300;12.394;2023-10-13T14:39:06;8.53;;;4.90;;
25327;SDS011;13279;51.300;12.394;2023-10-13T14:41:35;10.33;;;4.40;;
25327;SDS011;13279;51.300;12.394;2023-10-13T14:44:03;13.37;;;4.83;;
25327;SDS011;13279;51.300;12.394;2023-10-13T14:46:32;8.77;;;4.33;;
25327;SDS011;13279;51.300;12.394;2023-10-13T14:49:01;12.33;;;4.27;;
25327;SDS011;13279;51.300;12.394;2023-10-13T14:51:29;14.57;;;4.57;;
25327;SDS011;13279;51.300;12.394;2023-10-13T14:53:58;11.03;;;3.83;;
25327;SDS011;13279;51.300;12.394;2023-10-13T14:56:26;9.00;;;4.17;;
25327;SDS011;13279;51.300;12.394;2023-10-13T14:58:54;7.23;;;4.40;;
25327;SDS011;13279;51.300;12.394;2023-10-13T15:01:22;8.43;;;4.57;;
25327;SDS011;13279;51.300;12.394;2023-10-13T15:03:52;12.03;;;4.37;;
25327;SDS011;13279;51.300;12.394;2023-10-13T15:06:22;16.00;;;4.30;;
25327;SDS011;13279;51.300;12.394;2023-10-13T15:08:54;9.33;;;3.97;;
25327;SDS011;13279;51.300;12.394;2023-10-13T15:11:24;11.53;;;4.43;;
25327;SDS011;13279;51.300;12.394;2023-10-13T15:14:02;14.50;;;4.57;;